createdAt,value
2022-11-20T00:01:31.943Z,2.24
2022-11-20T00:03:58.185Z,2.26
2022-11-20T00:06:24.465Z,2.39
2022-11-20T00:08:50.712Z,2.33
2022-11-20T00:11:16.973Z,2.31
2022-11-20T00:13:43.245Z,2.24
2022-11-20T00:16:09.476Z,2.46
2022-11-20T00:18:35.766Z,2.34
2022-11-20T00:21:02.010Z,2.42
2022-11-20T00:23:28.270Z,2.65
2022-11-20T00:25:54.541Z,2.17
2022-11-20T00:28:20.767Z,2.30
2022-11-20T00:30:47.061Z,2.04
2022-11-20T00:33:13.323Z,2.24
2022-11-20T00:35:39.569Z,2.20
2022-11-20T00:38:05.833Z,2.11
2022-11-20T00:40:32.074Z,2.04
2022-11-20T00:42:58.320Z,1.95
2022-11-20T00:45:24.553Z,2.05
2022-11-20T00:47:50.786Z,2.19
2022-11-20T00:50:17.022Z,1.83
2022-11-20T00:52:43.258Z,1.96
2022-11-20T00:55:09.491Z,1.76
2022-11-20T00:57:35.725Z,1.80
2022-11-20T01:00:01.953Z,2.02
2022-11-20T01:02:28.213Z,1.91
2022-11-20T01:04:54.466Z,1.98
2022-11-20T01:07:20.794Z,1.89
2022-11-20T01:09:47.099Z,1.85
2022-11-20T01:12:13.352Z,1.93
2022-11-20T01:14:39.586Z,1.93
2022-11-20T01:17:05.817Z,1.84
2022-11-20T01:19:32.084Z,1.69
2022-11-20T01:21:58.329Z,1.84
2022-11-20T01:24:24.558Z,1.70
2022-11-20T01:26:50.817Z,1.90
2022-11-20T01:29:17.061Z,1.99
2022-11-20T01:31:43.307Z,2.09
2022-11-20T01:34:09.558Z,2.20
2022-11-20T01:36:35.809Z,2.15
2022-11-20T01:39:02.050Z,2.01
2022-11-20T01:41:28.274Z,1.97
2022-11-20T01:43:54.529Z,2.01
2022-11-20T01:46:20.781Z,2.01
2022-11-20T01:48:47.029Z,1.88
2022-11-20T01:51:13.282Z,1.94
2022-11-20T01:53:39.514Z,1.89
2022-11-20T01:56:05.782Z,1.95
2022-11-20T01:58:32.062Z,1.96
2022-11-20T02:00:58.319Z,1.85
2022-11-20T02:03:24.613Z,1.82
2022-11-20T02:05:50.893Z,1.78
2022-11-20T02:08:17.148Z,1.58
2022-11-20T02:10:43.395Z,1.71
2022-11-20T02:13:09.621Z,1.49
2022-11-20T02:15:35.859Z,1.42
2022-11-20T02:18:02.108Z,1.47
2022-11-20T02:20:28.374Z,1.52
2022-11-20T02:22:54.634Z,1.40
2022-11-20T02:25:20.866Z,1.47
2022-11-20T02:27:47.134Z,1.35
2022-11-20T02:30:13.404Z,1.26
2022-11-20T02:32:39.657Z,1.40
2022-11-20T02:35:05.960Z,1.19
2022-11-20T02:37:32.197Z,1.35
2022-11-20T02:39:58.433Z,1.26
2022-11-20T02:42:24.669Z,1.14
2022-11-20T02:44:50.909Z,1.18
2022-11-20T02:47:17.191Z,1.27
2022-11-20T02:49:43.457Z,1.17
2022-11-20T02:52:09.689Z,1.29
2022-11-20T02:54:35.964Z,1.33
2022-11-20T02:57:02.190Z,1.21
2022-11-20T02:59:28.461Z,1.18
2022-11-20T03:01:54.714Z,1.21
2022-11-20T03:04:20.953Z,1.28
2022-11-20T03:06:47.215Z,1.31
2022-11-20T03:09:13.446Z,1.13
2022-11-20T03:11:39.706Z,1.16
2022-11-20T03:14:06.042Z,1.21
2022-11-20T03:16:32.280Z,1.17
2022-11-20T03:18:58.520Z,1.11
2022-11-20T03:21:24.765Z,1.07
2022-11-20T03:23:51.030Z,1.12
2022-11-20T03:26:17.385Z,1.02
2022-11-20T03:28:43.613Z,0.96
2022-11-20T03:31:09.912Z,1.06
2022-11-20T03:33:36.156Z,0.96
2022-11-20T03:36:02.422Z,1.01
2022-11-20T03:38:28.655Z,1.06
2022-11-20T03:40:54.882Z,1.08
2022-11-20T03:43:21.110Z,0.96
2022-11-20T03:45:47.349Z,0.95
2022-11-20T03:48:13.600Z,0.90
2022-11-20T03:50:39.892Z,0.91
2022-11-20T03:53:06.138Z,1.02
2022-11-20T03:55:32.369Z,0.84
2022-11-20T03:57:58.628Z,0.98
2022-11-20T04:00:24.849Z,1.06
2022-11-20T04:02:51.107Z,0.92
2022-11-20T04:05:17.341Z,0.92
2022-11-20T04:07:43.571Z,1.01
2022-11-20T04:10:09.809Z,0.90
2022-11-20T04:12:36.052Z,0.98
2022-11-20T04:15:02.308Z,0.92
2022-11-20T04:17:28.560Z,0.83
2022-11-20T04:19:54.790Z,0.89
2022-11-20T04:22:21.029Z,0.78
2022-11-20T04:24:47.259Z,0.91
2022-11-20T04:27:13.518Z,0.92
2022-11-20T04:29:39.741Z,0.93
2022-11-20T04:32:05.972Z,0.96
2022-11-20T04:34:32.225Z,0.99
2022-11-20T04:36:58.575Z,0.94
2022-11-20T04:39:24.897Z,0.88
2022-11-20T04:41:51.182Z,0.99
2022-11-20T04:44:17.525Z,0.94
2022-11-20T04:46:43.755Z,0.94
2022-11-20T04:49:09.982Z,0.94
2022-11-20T04:51:36.246Z,0.95
2022-11-20T04:54:02.516Z,0.92
2022-11-20T04:56:28.755Z,1.09
2022-11-20T04:58:55.023Z,1.08
2022-11-20T05:01:21.307Z,1.13
2022-11-20T05:03:47.606Z,1.35
2022-11-20T05:06:13.860Z,1.25
2022-11-20T05:08:40.087Z,1.19
2022-11-20T05:11:06.360Z,1.23
2022-11-20T05:13:32.621Z,1.46
2022-11-20T05:15:58.938Z,1.55
2022-11-20T05:18:25.196Z,1.56
2022-11-20T05:20:51.529Z,1.55
2022-11-20T05:23:17.762Z,1.69
2022-11-20T05:25:44.010Z,1.56
2022-11-20T05:28:10.248Z,1.69
2022-11-20T05:30:36.501Z,1.56
2022-11-20T05:33:02.753Z,1.52
2022-11-20T05:35:28.998Z,1.70
2022-11-20T05:37:55.366Z,1.73
2022-11-20T05:40:21.598Z,1.59
2022-11-20T05:42:47.867Z,1.83
2022-11-20T05:45:14.124Z,1.74
2022-11-20T05:47:40.385Z,1.93
2022-11-20T05:50:06.622Z,2.11
2022-11-20T05:52:32.868Z,2.20
2022-11-20T05:54:59.174Z,2.14
2022-11-20T05:57:25.429Z,2.12
2022-11-20T05:59:51.675Z,2.11
2022-11-20T06:02:17.958Z,2.17
2022-11-20T06:04:44.264Z,2.02
2022-11-20T06:07:10.585Z,2.16
2022-11-20T06:09:36.885Z,1.98
2022-11-20T06:12:03.128Z,2.24
2022-11-20T06:14:29.379Z,2.07
2022-11-20T06:16:55.606Z,2.22
2022-11-20T06:19:21.977Z,2.19
2022-11-20T06:21:48.441Z,2.14
2022-11-20T06:24:14.688Z,2.06
2022-11-20T06:26:40.935Z,1.96
2022-11-20T06:29:07.184Z,1.92
2022-11-20T06:31:33.419Z,2.11
2022-11-20T06:33:59.675Z,2.21
2022-11-20T06:36:25.936Z,2.19
2022-11-20T06:38:52.196Z,2.16
2022-11-20T06:41:18.441Z,2.28
2022-11-20T06:43:44.702Z,2.48
2022-11-20T06:46:10.941Z,2.28
2022-11-20T06:48:37.180Z,2.37
2022-11-20T06:51:03.435Z,2.46
2022-11-20T06:53:29.681Z,2.40
2022-11-20T06:55:55.929Z,2.38
2022-11-20T06:58:22.177Z,2.37
2022-11-20T07:00:48.445Z,2.12
2022-11-20T07:03:14.697Z,2.01
2022-11-20T07:05:40.940Z,1.80
2022-11-20T07:08:07.183Z,1.81
2022-11-20T07:10:33.436Z,1.89
2022-11-20T07:12:59.683Z,1.71
2022-11-20T07:15:25.922Z,1.65
2022-11-20T07:17:52.165Z,1.60
2022-11-20T07:20:18.416Z,1.42
2022-11-20T07:22:44.664Z,1.48
2022-11-20T07:25:10.899Z,1.66
2022-11-20T07:27:37.155Z,1.65
2022-11-20T07:30:03.407Z,1.72
2022-11-20T07:32:29.660Z,1.78
2022-11-20T07:34:55.897Z,2.02
2022-11-20T07:37:22.124Z,1.86
2022-11-20T07:39:48.373Z,2.02
2022-11-20T07:42:14.609Z,1.91
2022-11-20T07:44:40.869Z,1.89
2022-11-20T07:47:07.099Z,1.96
2022-11-20T07:49:33.345Z,1.96
2022-11-20T07:52:04.410Z,1.87
2022-11-20T07:54:31.476Z,1.99
2022-11-20T07:56:57.714Z,2.15
2022-11-20T07:59:24.158Z,2.12
2022-11-20T08:01:50.590Z,2.30
2022-11-20T08:04:16.825Z,2.14
2022-11-20T08:06:43.054Z,2.09
2022-11-20T08:09:09.301Z,2.42
2022-11-20T08:11:35.534Z,2.85
2022-11-20T08:14:01.793Z,2.83
2022-11-20T08:16:28.025Z,2.73
2022-11-20T08:18:54.291Z,2.57
2022-11-20T08:21:20.525Z,2.65
2022-11-20T08:23:46.768Z,2.64
2022-11-20T08:26:13.021Z,3.05
2022-11-20T08:28:39.272Z,3.22
2022-11-20T08:31:05.534Z,3.23
2022-11-20T08:33:31.773Z,3.29
2022-11-20T08:35:58.015Z,3.29
2022-11-20T08:38:24.260Z,3.25
2022-11-20T08:40:50.542Z,3.72
2022-11-20T08:43:16.806Z,3.51
2022-11-20T08:45:43.056Z,3.74
2022-11-20T08:48:09.313Z,3.87
2022-11-20T08:50:35.569Z,3.40
2022-11-20T08:53:01.820Z,2.94
2022-11-20T08:55:28.078Z,2.90
2022-11-20T08:57:54.332Z,2.96
2022-11-20T09:00:20.580Z,2.86
2022-11-20T09:02:46.817Z,2.88
2022-11-20T09:05:13.049Z,2.87
2022-11-20T09:07:39.357Z,3.11
2022-11-20T09:12:51.830Z,3.03
2022-11-20T09:15:18.087Z,3.09
2022-11-20T09:17:44.332Z,2.90
2022-11-20T09:20:10.569Z,3.00
2022-11-20T09:22:36.819Z,3.01
2022-11-20T09:25:03.071Z,2.83
2022-11-20T09:27:29.318Z,2.66
2022-11-20T09:29:55.567Z,2.46
2022-11-20T09:32:21.796Z,2.81
2022-11-20T09:34:48.040Z,2.31
2022-11-20T09:37:14.275Z,2.19
2022-11-20T09:39:40.511Z,2.00
2022-11-20T09:42:06.760Z,1.87
2022-11-20T09:44:32.995Z,2.06
2022-11-20T09:46:59.238Z,1.68
2022-11-20T09:49:31.930Z,1.41
2022-11-20T09:51:58.484Z,1.14
2022-11-20T09:54:24.728Z,1.04
2022-11-20T09:56:50.980Z,1.41
2022-11-20T09:59:17.216Z,1.95
2022-11-20T10:01:43.447Z,2.13
2022-11-20T10:04:09.694Z,2.01
2022-11-20T10:06:35.927Z,1.94
2022-11-20T10:09:02.180Z,2.20
2022-11-20T10:11:28.437Z,2.55
2022-11-20T10:13:54.683Z,2.50
2022-11-20T10:16:20.919Z,1.95
2022-11-20T10:18:47.151Z,1.88
2022-11-20T10:21:13.385Z,1.56
2022-11-20T10:23:39.630Z,1.75
2022-11-20T10:26:05.871Z,1.90
2022-11-20T10:28:32.120Z,1.59
2022-11-20T10:30:58.349Z,1.28
2022-11-20T10:33:24.602Z,1.34
2022-11-20T10:35:50.831Z,1.17
2022-11-20T10:38:17.061Z,1.38
2022-11-20T10:40:43.312Z,1.44
2022-11-20T10:43:09.566Z,1.53
2022-11-20T10:45:35.808Z,1.37
2022-11-20T10:48:02.038Z,1.32
2022-11-20T10:50:28.293Z,1.42
2022-11-20T10:52:54.519Z,1.49
2022-11-20T10:55:20.765Z,1.29
2022-11-20T10:57:46.994Z,1.41
2022-11-20T11:00:13.236Z,1.28
2022-11-20T11:02:39.484Z,1.28
2022-11-20T11:05:08.146Z,1.00
2022-11-20T11:07:37.937Z,0.93
2022-11-20T11:10:04.213Z,0.59
2022-11-20T11:12:30.448Z,0.48
2022-11-20T11:14:56.797Z,0.69
2022-11-20T11:17:23.040Z,0.50
2022-11-20T11:19:49.272Z,0.53
2022-11-20T11:22:15.521Z,0.53
2022-11-20T11:24:43.262Z,0.55
2022-11-20T11:27:13.729Z,0.61
2022-11-20T11:29:42.972Z,0.67
2022-11-20T11:32:09.202Z,0.57
2022-11-20T11:34:35.430Z,0.68
2022-11-20T11:37:01.660Z,0.72
2022-11-20T11:39:27.897Z,0.75
2022-11-20T11:41:54.142Z,0.74
2022-11-20T11:44:20.393Z,0.66
2022-11-20T11:46:46.626Z,0.80
2022-11-20T11:49:12.884Z,0.74
2022-11-20T11:51:39.128Z,0.86
2022-11-20T11:54:05.361Z,0.80
2022-11-20T11:56:31.603Z,0.76
2022-11-20T11:58:57.855Z,0.85
2022-11-20T12:01:24.096Z,0.80
2022-11-20T12:03:50.322Z,0.87
2022-11-20T12:06:16.559Z,0.64
2022-11-20T12:08:42.821Z,0.78
2022-11-20T12:11:09.114Z,0.84
2022-11-20T12:13:36.725Z,0.83
2022-11-20T12:16:02.954Z,0.76
2022-11-20T12:18:29.213Z,0.89
2022-11-20T12:20:55.457Z,0.82
2022-11-20T12:23:21.683Z,0.78
2022-11-20T12:25:47.933Z,0.98
2022-11-20T12:28:14.162Z,1.05
2022-11-20T12:30:40.390Z,1.01
2022-11-20T12:33:06.630Z,1.18
2022-11-20T12:35:33.085Z,1.30
2022-11-20T12:37:59.308Z,1.25
2022-11-20T12:40:25.538Z,1.10
2022-11-20T12:42:51.769Z,1.38
2022-11-20T12:45:17.998Z,1.69
2022-11-20T12:47:44.237Z,1.56
2022-11-20T12:50:10.493Z,1.50
2022-11-20T12:52:36.761Z,1.86
2022-11-20T12:55:03.022Z,1.79
2022-11-20T12:57:29.272Z,1.74
2022-11-20T12:59:55.511Z,1.19
2022-11-20T13:02:21.737Z,1.09
2022-11-20T13:04:47.973Z,1.25
2022-11-20T13:07:14.246Z,1.21
2022-11-20T13:09:40.506Z,1.22
2022-11-20T13:12:06.734Z,1.18
2022-11-20T13:14:32.962Z,1.26
2022-11-20T13:17:04.738Z,1.22
2022-11-20T13:19:32.215Z,1.16
2022-11-20T13:21:58.445Z,1.15
2022-11-20T13:24:25.064Z,1.03
2022-11-20T13:26:51.491Z,0.81
2022-11-20T13:29:17.723Z,0.86
2022-11-20T13:31:43.945Z,0.87
2022-11-20T13:34:10.192Z,0.95
2022-11-20T13:36:36.418Z,1.08
2022-11-20T13:39:02.647Z,1.16
2022-11-20T13:41:28.889Z,1.19
2022-11-20T13:43:55.246Z,1.20
2022-11-20T13:46:21.523Z,1.38
2022-11-20T13:48:47.752Z,1.60
2022-11-20T13:51:14.119Z,1.45
2022-11-20T13:53:40.395Z,1.46
2022-11-20T13:56:06.626Z,1.43
2022-11-20T13:58:32.872Z,1.54
2022-11-20T14:00:59.176Z,1.47
2022-11-20T14:03:51.285Z,1.22
2022-11-20T14:06:11.675Z,0.94
2022-11-20T14:08:37.920Z,0.77
2022-11-20T14:11:04.176Z,0.85
2022-11-20T14:13:30.426Z,0.79
2022-11-20T14:15:56.673Z,0.95
2022-11-20T14:18:22.923Z,0.95
2022-11-20T14:20:49.168Z,0.87
2022-11-20T14:23:15.393Z,0.92
2022-11-20T14:25:41.650Z,1.09
2022-11-20T14:28:07.883Z,1.16
2022-11-20T14:30:34.117Z,0.98
2022-11-20T14:33:00.380Z,1.10
2022-11-20T14:35:26.639Z,1.07
2022-11-20T14:37:52.866Z,1.08
2022-11-20T14:40:19.100Z,1.23
2022-11-20T14:42:45.349Z,1.06
2022-11-20T14:45:11.577Z,1.01
2022-11-20T14:47:37.809Z,0.99
2022-11-20T14:50:08.815Z,1.15
2022-11-20T14:52:36.303Z,1.02
2022-11-20T14:55:02.533Z,1.04
2022-11-20T14:57:28.759Z,1.11
2022-11-20T14:59:54.995Z,1.39
2022-11-20T15:02:21.246Z,1.18
2022-11-20T15:04:47.522Z,1.41
2022-11-20T15:07:13.814Z,1.18
2022-11-20T15:09:40.107Z,1.03
2022-11-20T15:12:06.335Z,0.96
2022-11-20T15:14:32.577Z,1.03
2022-11-20T15:16:58.838Z,0.91
2022-11-20T15:19:25.069Z,1.10
2022-11-20T15:21:51.301Z,1.01
2022-11-20T15:24:17.531Z,1.00
2022-11-20T15:26:44.820Z,1.06
2022-11-20T15:29:11.055Z,1.19
2022-11-20T15:31:37.305Z,1.11
2022-11-20T15:34:03.558Z,1.23
2022-11-20T15:36:29.800Z,1.28
2022-11-20T15:38:56.028Z,1.34
2022-11-20T15:41:22.279Z,1.38
2022-11-20T15:43:48.534Z,1.28
2022-11-20T15:46:14.788Z,1.41
2022-11-20T15:48:47.359Z,1.36
2022-11-20T15:51:14.365Z,9.02
2022-11-20T15:53:40.613Z,1.80
2022-11-20T15:56:06.849Z,1.64
2022-11-20T15:58:33.112Z,1.65
2022-11-20T16:00:59.415Z,1.70
2022-11-20T16:03:25.712Z,1.65
2022-11-20T16:05:51.942Z,1.56
2022-11-20T16:08:18.177Z,1.53
2022-11-20T16:10:44.425Z,1.44
2022-11-20T16:13:10.766Z,1.40
2022-11-20T16:15:37.000Z,1.30
2022-11-20T16:18:03.247Z,1.36
2022-11-20T16:20:29.485Z,1.39
2022-11-20T16:22:55.710Z,1.27
2022-11-20T16:25:21.962Z,1.31
2022-11-20T16:27:48.205Z,1.28
2022-11-20T16:30:14.430Z,1.28
2022-11-20T16:32:40.774Z,1.56
2022-11-20T16:35:07.017Z,1.36
2022-11-20T16:37:33.246Z,1.35
2022-11-20T16:39:59.476Z,1.32
2022-11-20T16:42:25.711Z,1.40
2022-11-20T16:44:52.146Z,1.46
2022-11-20T16:47:18.398Z,1.48
2022-11-20T16:49:44.638Z,1.33
2022-11-20T16:52:10.899Z,1.42
2022-11-20T16:54:37.153Z,1.58
2022-11-20T16:57:03.405Z,1.49
2022-11-20T16:59:29.657Z,1.34
2022-11-20T17:01:55.941Z,1.51
2022-11-20T17:04:22.610Z,1.36
2022-11-20T17:06:49.169Z,1.51
2022-11-20T17:09:15.422Z,1.35
2022-11-20T17:11:41.661Z,1.26
2022-11-20T17:14:07.887Z,1.13
2022-11-20T17:16:34.121Z,1.23
2022-11-20T17:19:03.388Z,1.31
2022-11-20T17:21:30.034Z,1.39
2022-11-20T17:23:56.300Z,1.30
2022-11-20T17:26:22.530Z,2.12
2022-11-20T17:28:48.757Z,1.47
2022-11-20T17:31:15.003Z,1.32
2022-11-20T17:33:41.268Z,1.36
2022-11-20T17:36:07.504Z,1.58
2022-11-20T17:38:33.735Z,1.54
2022-11-20T17:40:59.969Z,1.72
2022-11-20T17:43:26.203Z,1.85
2022-11-20T17:45:52.436Z,2.12
2022-11-20T17:48:18.674Z,2.34
2022-11-20T17:50:44.921Z,2.39
2022-11-20T17:53:11.166Z,2.06
2022-11-20T17:55:37.416Z,1.66
2022-11-20T17:58:03.665Z,1.29
2022-11-20T18:00:29.910Z,1.01
2022-11-20T18:02:56.153Z,1.11
2022-11-20T18:05:22.397Z,1.07
2022-11-20T18:07:48.669Z,1.27
2022-11-20T18:10:14.953Z,1.11
2022-11-20T18:12:41.198Z,1.23
2022-11-20T18:15:07.457Z,1.34
2022-11-20T18:17:33.711Z,1.53
2022-11-20T18:22:46.153Z,1.61
2022-11-20T18:25:12.417Z,1.49
2022-11-20T18:27:38.670Z,1.49
2022-11-20T18:30:04.902Z,1.23
2022-11-20T18:32:31.630Z,1.37
2022-11-20T18:34:57.905Z,1.21
2022-11-20T18:37:24.129Z,1.12
2022-11-20T18:39:50.426Z,1.23
2022-11-20T18:42:16.758Z,1.08
2022-11-20T18:44:43.008Z,1.09
2022-11-20T18:47:14.204Z,0.89
2022-11-20T18:49:41.002Z,0.93
2022-11-20T18:52:07.241Z,1.06
2022-11-20T18:54:33.466Z,1.00
2022-11-20T18:56:59.697Z,0.97
2022-11-20T18:59:25.926Z,0.98
2022-11-20T19:01:52.199Z,1.00
2022-11-20T19:04:18.442Z,0.93
2022-11-20T19:06:44.682Z,1.02
2022-11-20T19:09:10.936Z,0.92
2022-11-20T19:11:37.185Z,1.16
2022-11-20T19:14:03.431Z,1.22
2022-11-20T19:16:29.675Z,1.35
2022-11-20T19:18:57.274Z,1.46
2022-11-20T19:21:23.658Z,1.44
2022-11-20T19:23:49.911Z,1.62
2022-11-20T19:26:16.218Z,1.45
2022-11-20T19:28:42.491Z,1.53
2022-11-20T19:31:08.813Z,1.56
2022-11-20T19:33:35.046Z,1.72
2022-11-20T19:36:01.269Z,1.73
2022-11-20T19:38:27.517Z,1.77
2022-11-20T19:40:53.765Z,1.74
2022-11-20T19:43:20.011Z,1.79
2022-11-20T19:45:46.349Z,1.57
2022-11-20T19:48:12.583Z,1.63
2022-11-20T19:50:38.831Z,1.47
2022-11-20T19:53:05.094Z,1.64
2022-11-20T19:55:31.356Z,1.60
2022-11-20T19:57:57.588Z,1.52
2022-11-20T20:00:29.591Z,1.65
2022-11-20T20:02:58.488Z,1.46
2022-11-20T20:05:24.761Z,1.63
2022-11-20T20:07:51.009Z,1.73
2022-11-20T20:10:17.253Z,1.86
2022-11-20T20:12:43.497Z,1.82
2022-11-20T20:15:09.763Z,1.88
2022-11-20T20:17:36.445Z,1.73
2022-11-20T20:20:02.694Z,1.85
2022-11-20T20:22:28.931Z,1.56
2022-11-20T20:24:55.236Z,1.49
2022-11-20T20:27:21.476Z,1.55
2022-11-20T20:29:47.732Z,1.58
2022-11-20T20:32:13.964Z,1.55
2022-11-20T20:34:40.309Z,1.54
2022-11-20T20:37:06.559Z,1.70
2022-11-20T20:39:32.809Z,1.69
2022-11-20T20:41:59.048Z,1.77
2022-11-20T20:44:25.289Z,1.77
2022-11-20T20:46:51.524Z,1.64
2022-11-20T20:49:17.751Z,1.63
2022-11-20T20:51:43.991Z,1.58
2022-11-20T20:54:10.221Z,1.54
2022-11-20T20:56:36.470Z,1.81
2022-11-20T20:59:02.701Z,1.71
2022-11-20T21:01:29.148Z,1.74
2022-11-20T21:03:56.021Z,1.89
2022-11-20T21:06:22.254Z,1.88
2022-11-20T21:08:48.508Z,1.81
2022-11-20T21:11:14.782Z,1.79
2022-11-20T21:13:41.028Z,1.89
2022-11-20T21:16:07.269Z,1.61
2022-11-20T21:18:33.505Z,1.67
2022-11-20T21:20:59.749Z,1.80
2022-11-20T21:23:26.005Z,1.76
2022-11-20T21:25:52.237Z,1.95
2022-11-20T21:28:18.638Z,1.80
2022-11-20T21:30:44.894Z,1.66
2022-11-20T21:33:11.134Z,1.80
2022-11-20T21:35:37.384Z,1.86
2022-11-20T21:38:03.617Z,1.84
2022-11-20T21:40:29.861Z,1.86
2022-11-20T21:42:56.105Z,1.93
2022-11-20T21:45:22.339Z,2.03
2022-11-20T21:47:48.599Z,2.04
2022-11-20T21:50:14.825Z,2.11
2022-11-20T21:52:41.055Z,2.26
2022-11-20T21:55:07.304Z,2.28
2022-11-20T21:57:33.539Z,2.17
2022-11-20T21:59:59.769Z,2.24
2022-11-20T22:02:26.033Z,2.17
2022-11-20T22:04:52.267Z,2.31
2022-11-20T22:07:18.601Z,2.22
2022-11-20T22:09:44.914Z,2.09
2022-11-20T22:12:11.146Z,1.99
2022-11-20T22:14:37.386Z,2.22
2022-11-20T22:17:03.633Z,2.22
2022-11-20T22:19:29.886Z,2.13
2022-11-20T22:21:56.118Z,2.15
2022-11-20T22:24:22.815Z,2.08
2022-11-20T22:26:49.396Z,2.25
2022-11-20T22:29:15.644Z,2.34
2022-11-20T22:31:41.877Z,2.54
2022-11-20T22:34:08.145Z,2.42
2022-11-20T22:36:34.380Z,2.71
2022-11-20T22:39:00.629Z,2.52
2022-11-20T22:41:26.864Z,2.70
2022-11-20T22:43:53.094Z,2.79
2022-11-20T22:46:19.361Z,2.59
2022-11-20T22:48:45.609Z,2.73
2022-11-20T22:51:11.908Z,2.66
2022-11-20T22:53:38.146Z,2.72
2022-11-20T22:56:04.381Z,2.73
2022-11-20T22:58:30.640Z,2.91
2022-11-20T23:00:56.870Z,2.83
2022-11-20T23:03:23.121Z,2.99
2022-11-20T23:05:49.401Z,2.98
2022-11-20T23:08:15.631Z,2.86
2022-11-20T23:10:41.921Z,2.83
2022-11-20T23:13:08.168Z,2.73
2022-11-20T23:15:34.423Z,2.64
2022-11-20T23:18:00.676Z,2.77
2022-11-20T23:20:26.933Z,2.94
2022-11-20T23:22:53.176Z,2.86
2022-11-20T23:25:19.428Z,2.69
2022-11-20T23:27:45.667Z,2.89
2022-11-20T23:30:11.907Z,2.79
2022-11-20T23:32:38.150Z,2.67
2022-11-20T23:35:04.378Z,2.76
2022-11-20T23:37:30.611Z,2.66
2022-11-20T23:39:56.838Z,2.85
2022-11-20T23:42:23.088Z,2.69
2022-11-20T23:44:49.345Z,2.65
2022-11-20T23:47:15.578Z,2.52
2022-11-20T23:49:41.828Z,2.93
2022-11-20T23:52:08.083Z,2.77
2022-11-20T23:54:34.309Z,2.72
2022-11-20T23:57:00.562Z,2.58
2022-11-20T23:59:26.821Z,2.54
